createdAt,value
2022-07-30T00:02:36.422Z,61.96
2022-07-30T00:07:39.695Z,61.85
2022-07-30T00:12:43.076Z,61.95
2022-07-30T00:17:46.758Z,61.97
2022-07-30T00:22:52.833Z,61.75
2022-07-30T00:27:56.400Z,61.79
2022-07-30T00:33:00.996Z,61.73
2022-07-30T00:38:04.585Z,61.97
2022-07-30T00:43:08.698Z,61.83
2022-07-30T00:48:13.804Z,61.88
2022-07-30T00:53:17.575Z,61.85
2022-07-30T00:58:21.007Z,61.86
2022-07-30T01:03:25.269Z,61.93
2022-07-30T01:08:28.440Z,62.00
2022-07-30T01:13:31.669Z,62.03
2022-07-30T01:18:55.323Z,62.01
2022-07-30T01:24:27.049Z,61.74
2022-07-30T01:29:32.159Z,61.97
2022-07-30T01:34:36.181Z,61.96
2022-07-30T01:39:41.714Z,61.91
2022-07-30T01:44:47.863Z,62.05
2022-07-30T01:49:53.007Z,61.84
2022-07-30T01:55:05.170Z,61.67
2022-07-30T02:00:20.268Z,61.89
2022-07-30T02:05:27.659Z,62.00
2022-07-30T02:10:52.865Z,62.02
2022-07-30T02:16:14.312Z,62.05
2022-07-30T02:21:19.918Z,61.96
2022-07-30T02:26:26.285Z,62.12
2022-07-30T02:31:32.200Z,62.08
2022-07-30T02:36:37.612Z,62.18
2022-07-30T02:41:49.251Z,62.16
2022-07-30T02:46:54.161Z,62.24
2022-07-30T02:52:22.131Z,62.19
2022-07-30T02:57:29.429Z,62.38
2022-07-30T03:02:43.628Z,62.39
2022-07-30T03:07:47.942Z,62.61
2022-07-30T03:12:55.470Z,62.54
2022-07-30T03:18:00.916Z,62.63
2022-07-30T03:23:04.932Z,62.85
2022-07-30T03:28:09.145Z,62.93
2022-07-30T03:33:13.276Z,63.07
2022-07-30T03:38:23.915Z,63.20
2022-07-30T03:43:33.140Z,63.35
2022-07-30T03:48:38.983Z,63.29
2022-07-30T03:53:43.120Z,63.35
2022-07-30T03:59:05.645Z,63.54
2022-07-30T04:04:11.805Z,63.53
2022-07-30T04:09:16.491Z,63.59
2022-07-30T04:14:29.040Z,63.69
2022-07-30T04:19:45.030Z,63.69
2022-07-30T04:24:49.779Z,63.70
2022-07-30T04:29:54.473Z,63.73
2022-07-30T04:34:57.980Z,63.80
2022-07-30T04:40:47.628Z,63.52
2022-07-30T04:46:03.852Z,63.53
2022-07-30T04:51:10.023Z,63.65
2022-07-30T04:56:14.577Z,63.53
2022-07-30T05:01:24.435Z,63.60
2022-07-30T05:06:44.212Z,63.30
2022-07-30T05:12:13.474Z,63.36
2022-07-30T05:17:17.352Z,63.20
2022-07-30T05:22:20.508Z,63.23
2022-07-30T05:27:23.864Z,63.06
2022-07-30T05:32:31.447Z,62.87
2022-07-30T05:37:44.301Z,62.79
2022-07-30T05:42:47.946Z,62.80
2022-07-30T05:47:51.251Z,62.67
2022-07-30T05:53:00.327Z,62.65
2022-07-30T05:58:23.410Z,62.49
2022-07-30T06:03:26.685Z,62.28
2022-07-30T06:08:57.049Z,62.04
2022-07-30T06:14:01.404Z,61.90
2022-07-30T06:19:19.760Z,61.55
2022-07-30T06:24:29.020Z,61.58
2022-07-30T06:29:54.979Z,61.56
2022-07-30T06:35:04.325Z,61.64
2022-07-30T06:40:09.608Z,61.78
2022-07-30T06:45:45.061Z,61.67
2022-07-30T06:51:21.033Z,61.31
2022-07-30T06:56:26.451Z,61.01
2022-07-30T07:01:39.577Z,60.95
2022-07-30T07:06:43.389Z,61.13
2022-07-30T07:12:00.677Z,60.92
2022-07-30T07:17:10.325Z,60.94
2022-07-30T07:22:49.428Z,60.77
2022-07-30T07:28:10.883Z,60.47
2022-07-30T07:33:17.653Z,60.38
2022-07-30T07:38:21.966Z,59.99
2022-07-30T07:43:26.839Z,59.67
2022-07-30T07:48:32.858Z,59.71
2022-07-30T07:54:20.319Z,59.64
2022-07-30T07:59:39.983Z,59.07
2022-07-30T08:05:06.068Z,58.89
2022-07-30T08:10:32.482Z,59.13
2022-07-30T08:16:06.664Z,59.55
2022-07-30T08:21:28.822Z,58.92
2022-07-30T08:26:32.230Z,58.58
2022-07-30T08:31:37.521Z,59.02
2022-07-30T08:36:41.951Z,59.16
2022-07-30T08:41:45.447Z,59.50
2022-07-30T08:46:53.513Z,59.83
2022-07-30T08:52:20.290Z,60.38
2022-07-30T08:57:35.684Z,60.65
2022-07-30T09:02:39.321Z,61.50
2022-07-30T09:07:43.917Z,61.77
2022-07-30T09:12:52.329Z,61.57
2022-07-30T09:18:00.817Z,62.12
2022-07-30T09:23:06.513Z,62.32
2022-07-30T09:28:30.965Z,63.02
2022-07-30T09:33:52.698Z,63.51
2022-07-30T09:39:38.078Z,64.37
2022-07-30T09:45:09.012Z,64.90
2022-07-30T09:50:17.950Z,66.53
2022-07-30T09:55:41.360Z,68.08
2022-07-30T10:00:58.224Z,68.80
2022-07-30T10:06:34.784Z,69.79
2022-07-30T10:11:42.926Z,70.58
2022-07-30T10:16:49.393Z,71.05
2022-07-30T10:21:58.347Z,72.22
2022-07-30T10:27:41.378Z,73.50
2022-07-30T10:33:00.115Z,74.83
2022-07-30T10:38:08.754Z,77.02
2022-07-30T10:43:32.854Z,77.51
2022-07-30T10:48:36.295Z,79.90
2022-07-30T10:53:42.936Z,80.16
2022-07-30T10:59:09.437Z,80.13
2022-07-30T11:04:33.963Z,80.98
2022-07-30T11:09:42.818Z,81.02
2022-07-30T11:14:46.616Z,80.85
2022-07-30T11:20:05.302Z,82.18
2022-07-30T11:25:12.641Z,81.42
2022-07-30T11:30:17.148Z,81.86
2022-07-30T11:35:34.939Z,83.78
2022-07-30T11:41:01.350Z,84.30
2022-07-30T11:46:28.949Z,85.43
2022-07-30T11:51:44.996Z,85.73
2022-07-30T11:56:54.359Z,84.99
2022-07-30T12:02:01.114Z,86.08
2022-07-30T12:07:04.719Z,86.14
2022-07-30T12:12:24.423Z,86.37
2022-07-30T12:17:44.878Z,87.46
2022-07-30T12:22:48.234Z,87.91
2022-07-30T12:27:52.387Z,88.35
2022-07-30T12:32:55.682Z,89.89
2022-07-30T12:38:04.637Z,89.68
2022-07-30T12:43:13.656Z,89.59
2022-07-30T12:48:17.299Z,89.43
2022-07-30T12:53:29.878Z,89.26
2022-07-30T12:58:38.343Z,90.85
2022-07-30T13:03:42.363Z,91.61
2022-07-30T13:08:55.052Z,92.66
2022-07-30T13:13:58.341Z,92.30
2022-07-30T13:19:03.353Z,92.75
2022-07-30T13:24:07.750Z,93.09
2022-07-30T13:29:13.857Z,92.94
2022-07-30T13:34:17.340Z,93.79
2022-07-30T13:39:20.716Z,95.00
2022-07-30T13:44:24.134Z,93.84
2022-07-30T13:49:27.651Z,94.09
2022-07-30T13:54:57.900Z,94.05
2022-07-30T14:00:11.434Z,95.46
2022-07-30T14:05:15.412Z,95.89
2022-07-30T14:10:28.525Z,95.23
2022-07-30T14:15:34.775Z,95.12
2022-07-30T14:20:39.703Z,95.08
2022-07-30T14:25:45.339Z,95.74
2022-07-30T14:30:49.460Z,97.26
2022-07-30T14:35:57.553Z,98.04
2022-07-30T14:41:05.854Z,98.09
2022-07-30T14:46:09.388Z,97.48
2022-07-30T14:51:17.932Z,98.62
2022-07-30T14:56:26.545Z,99.10
2022-07-30T15:01:30.270Z,99.51
2022-07-30T15:06:34.056Z,99.81
2022-07-30T15:12:04.325Z,99.65
2022-07-30T15:17:04.226Z,99.74
2022-07-30T15:22:08.141Z,99.99
2022-07-30T15:27:14.228Z,100.00
2022-07-30T15:32:19.643Z,100.00
2022-07-30T15:37:23.019Z,100.00
2022-07-30T15:42:31.385Z,100.00
2022-07-30T15:47:36.525Z,100.00
2022-07-30T15:52:39.886Z,100.00
2022-07-30T15:57:43.582Z,100.00
2022-07-30T16:02:46.904Z,100.00
